This is the latest recevied weather packets stored in our database for station/object WE8L. If no packets are shown the sender has not sent any weather packets the latest 1 day(s).
| Time | Temp. | Humidity | Pressure | Rain* | Wind** | Luminosity | Snow |
|---|---|---|---|---|---|---|---|
| 1778014819 | 16.11° C | 96% | 1010.5 hPa | 0 mm | 0 m/s | 22 W/m² | - |
| 1778014517 | 16.11° C | 96% | 1010.5 hPa | 0 mm | 0.89 m/s, 243° | 27 W/m² | - |
| 1778014214 | 16.11° C | 96% | 1010.3 hPa | 1.78 mm | 0.45 m/s, 151° | 19 W/m² | - |
| 1778013912 | 16.11° C | 96% | 1010.2 hPa | 1.78 mm | 0 m/s | 23 W/m² | - |
| 1778013609 | 16.11° C | 96% | 1010.4 hPa | 0 mm | 0 m/s | 37 W/m² | - |
| 1778013305 | 16.11° C | 96% | 1010.6 hPa | 0 mm | 0.45 m/s, 205° | 41 W/m² | - |
| 1778013002 | 16.11° C | 96% | 1010.6 hPa | 0 mm | 0.45 m/s, 216° | 40 W/m² | - |
| 1778012698 | 16.67° C | 96% | 1010.4 hPa | 0 mm | 0.45 m/s, 205° | 49 W/m² | - |
| 1778012394 | 16.11° C | 96% | 1010.5 hPa | 0 mm | 0 m/s | 57 W/m² | - |
| 1778012091 | 16.11° C | 96% | 1010.5 hPa | 1.27 mm | 0 m/s | 57 W/m² | - |
| 1778011789 | 16.11° C | 95% | 1010.7 hPa | 1.27 mm | 0 m/s | 43 W/m² | - |
| 1778011487 | 16.11° C | 95% | 1010.6 hPa | 0 mm | 0 m/s | 42 W/m² | - |
| 1778011182 | 16.11° C | 95% | 1010.7 hPa | 1.78 mm | 0 m/s | 35 W/m² | - |
| 1778010880 | 16.11° C | 94% | 1010.7 hPa | 1.78 mm | 0 m/s | 36 W/m² | - |
| 1778010577 | 16.67° C | 94% | 1010.8 hPa | 1.27 mm | 0 m/s | 40 W/m² | - |
| 1778010274 | 16.11° C | 93% | 1010.9 hPa | 3.05 mm | 0 m/s | 34 W/m² | - |
| 1778009974 | 16.67° C | 92% | 1011 hPa | 1.78 mm | 0.45 m/s, 296° | 32 W/m² | - |
| 1778009672 | 16.67° C | 91% | 1011.4 hPa | 1.27 mm | 0.89 m/s, 267° | 42 W/m² | - |
| 1778009370 | 16.67° C | 90% | 1011.4 hPa | 3.05 mm | 0.45 m/s, 290° | 28 W/m² | - |
| 1778009068 | 17.22° C | 88% | 1011.2 hPa | 3.05 mm | 0.45 m/s, 278° | 25 W/m² | - |
| 1778008765 | 18.33° C | 83% | 1011.3 hPa | 1.27 mm | 1.34 m/s, 233° | 24 W/m² | - |
| 1778008464 | 18.89° C | 77% | 1011.2 hPa | 0 mm | 0.45 m/s, 289° | 15 W/m² | - |
| 1778008160 | 19.44° C | 73% | 1010.8 hPa | 0 mm | 0.89 m/s, 252° | 10 W/m² | - |
| 1778007855 | 20° C | 72% | 1010.7 hPa | 0 mm | 0.45 m/s, 289° | 16 W/m² | - |
| 1778007551 | 20° C | 71% | 1010.8 hPa | 0 mm | 0.89 m/s, 284° | 31 W/m² | - |
* Rain latest hour (hover to see other rain measurements)
** Current wind speed in m/s (hover to see current wind gust speed)